createdAt,value
2018-09-26T00:48:07.691Z,9.36
2018-09-26T00:53:11.774Z,9.27
2018-09-26T02:35:52.350Z,8.36
2018-09-26T02:40:55.670Z,8.29
2018-09-26T03:49:16.258Z,7.45
2018-09-26T03:54:19.585Z,7.41
2018-09-26T03:59:22.902Z,7.35
2018-09-26T04:33:12.077Z,7.19
2018-09-26T04:38:40.677Z,7.11
2018-09-26T04:43:43.986Z,7.04
2018-09-26T04:48:47.307Z,6.99
2018-09-26T04:53:50.619Z,6.90
2018-09-26T04:58:54.000Z,6.85
2018-09-26T05:03:57.311Z,6.81
2018-09-26T05:09:00.636Z,6.85
2018-09-26T05:14:03.954Z,6.91
2018-09-26T05:19:07.287Z,6.98
2018-09-26T05:24:10.609Z,6.99
2018-09-26T05:29:13.926Z,7.03
2018-09-26T05:34:17.239Z,6.98
2018-09-26T05:39:20.554Z,6.99
2018-09-26T05:44:23.867Z,7.07
2018-09-26T05:49:27.189Z,7.05
2018-09-26T05:54:30.905Z,6.98
2018-09-26T05:59:34.567Z,6.93
2018-09-26T06:04:37.855Z,6.82
2018-09-26T06:09:41.179Z,6.76
2018-09-26T06:14:44.494Z,6.84
2018-09-26T06:19:47.811Z,6.89
2018-09-26T06:24:51.170Z,6.97
2018-09-26T06:29:54.457Z,7.18
2018-09-26T07:03:43.195Z,8.13
2018-09-26T07:08:46.511Z,8.35
2018-09-26T07:13:49.826Z,8.54
2018-09-26T08:04:53.664Z,9.31
2018-09-26T08:09:57.767Z,9.33
2018-09-26T08:15:01.091Z,9.53
2018-09-26T09:05:54.926Z,10.90
2018-09-26T09:10:58.239Z,11.04
2018-09-26T10:02:02.755Z,12.28
2018-09-26T10:07:06.079Z,12.43
2018-09-26T10:12:09.402Z,12.50
2018-09-26T11:03:11.803Z,13.96
2018-09-26T11:08:15.191Z,14.14
2018-09-26T11:13:18.563Z,14.30
2018-09-26T12:04:23.907Z,16.65
2018-09-26T12:09:27.307Z,16.78
2018-09-26T12:14:30.652Z,17.05
2018-09-26T13:05:33.415Z,18.95
2018-09-26T13:10:36.748Z,18.75
2018-09-26T14:01:42.244Z,20.73
2018-09-26T14:06:45.566Z,20.73
2018-09-26T14:11:48.954Z,20.60
2018-09-26T14:45:53.555Z,22.91
2018-09-26T14:50:56.839Z,23.30
2018-09-26T14:56:00.178Z,22.21
2018-09-26T15:35:34.571Z,23.66
2018-09-26T15:40:37.979Z,23.34
2018-09-26T15:45:41.246Z,23.92
2018-09-26T15:50:44.573Z,24.04
2018-09-26T15:55:47.903Z,23.89
2018-09-26T16:00:51.230Z,23.25
2018-09-26T16:05:54.567Z,22.25
2018-09-26T16:10:57.914Z,22.38
2018-09-26T16:16:01.243Z,22.02
2018-09-26T16:21:04.567Z,21.47
2018-09-26T16:26:07.959Z,20.90
2018-09-26T16:31:11.259Z,20.74
2018-09-26T16:36:14.608Z,20.78
2018-09-26T16:41:17.946Z,20.67
2018-09-26T16:46:21.303Z,20.57
2018-09-26T16:51:24.626Z,20.47
2018-09-26T16:56:27.956Z,20.34
2018-09-26T17:01:32.038Z,20.21
2018-09-26T17:06:37.378Z,20.08
2018-09-26T17:11:41.025Z,19.89
2018-09-26T17:16:44.637Z,19.74
2018-09-26T17:21:48.708Z,19.65
2018-09-26T17:26:52.343Z,19.63
2018-09-26T17:31:56.229Z,19.52
2018-09-26T17:36:59.606Z,19.37
2018-09-26T17:42:03.441Z,19.24
2018-09-26T17:47:11.214Z,19.05
2018-09-26T17:52:14.606Z,18.88
2018-09-26T17:57:23.033Z,18.72
2018-09-26T18:02:26.391Z,18.60
2018-09-26T18:07:39.347Z,18.50
2018-09-26T18:12:42.687Z,18.39
2018-09-26T18:17:46.013Z,18.28
2018-09-26T18:22:49.347Z,18.20
2018-09-26T18:27:52.707Z,18.16
2018-09-26T18:32:56.019Z,18.02
2018-09-26T18:37:59.347Z,17.89
2018-09-26T18:43:02.685Z,17.77
2018-09-26T18:48:06.011Z,17.68
2018-09-26T18:53:09.427Z,17.63
2018-09-26T18:58:25.031Z,17.56
2018-09-26T19:03:28.351Z,17.49
2018-09-26T19:08:31.857Z,17.36
2018-09-26T19:13:35.208Z,17.23
2018-09-26T19:18:38.537Z,17.15
2018-09-26T19:23:42.748Z,17.05
2018-09-26T19:28:46.134Z,16.89
2018-09-26T19:33:49.460Z,16.66
2018-09-26T19:38:53.622Z,16.46
2018-09-26T19:43:57.009Z,16.38
2018-09-26T19:49:00.288Z,16.32
2018-09-26T19:54:03.611Z,16.21
2018-09-26T19:59:06.944Z,16.08
2018-09-26T20:04:10.283Z,15.94
2018-09-26T20:09:13.616Z,15.83
2018-09-26T20:14:16.949Z,15.70
2018-09-26T20:19:20.287Z,15.60
2018-09-26T20:24:23.620Z,15.51
2018-09-26T20:29:27.068Z,15.44
2018-09-26T20:34:30.318Z,15.32
2018-09-26T20:39:33.650Z,15.20
2018-09-26T20:44:36.994Z,15.12
2018-09-26T20:49:40.322Z,15.10
2018-09-26T20:54:43.651Z,15.10
2018-09-26T20:59:46.990Z,15.04
2018-09-26T21:04:50.315Z,14.95
2018-09-26T21:09:53.644Z,14.86
2018-09-26T21:14:56.973Z,14.81
2018-09-26T21:20:00.298Z,14.76
2018-09-26T21:25:03.632Z,14.67
2018-09-26T21:30:06.964Z,14.62
2018-09-26T21:35:10.293Z,14.58
2018-09-26T21:40:13.630Z,14.51
2018-09-26T21:45:16.959Z,14.48
2018-09-26T21:50:20.280Z,14.38
2018-09-26T21:55:23.607Z,14.24
2018-09-26T22:00:26.994Z,14.19
2018-09-26T22:05:30.359Z,14.16
2018-09-26T22:10:34.476Z,14.06
2018-09-26T22:15:37.859Z,13.94
2018-09-26T22:20:41.571Z,13.93
2018-09-26T22:25:45.194Z,14.00
2018-09-26T22:30:48.530Z,13.96
2018-09-26T22:35:51.863Z,13.92
2018-09-26T22:40:55.198Z,13.82
2018-09-26T22:45:58.519Z,13.72
2018-09-26T22:51:01.850Z,13.64
2018-09-26T22:56:05.177Z,13.57
2018-09-26T23:01:08.509Z,13.52
2018-09-26T23:06:11.846Z,13.45
2018-09-26T23:11:15.174Z,13.46
